createdAt,value
2019-04-12T00:02:48.569Z,62.50
2019-04-12T00:05:45.258Z,62.93
2019-04-12T00:08:42.919Z,62.36
2019-04-12T00:11:38.502Z,63.25
2019-04-12T00:14:34.603Z,63.40
2019-04-12T00:17:30.317Z,63.32
2019-04-12T00:20:28.163Z,63.44
2019-04-12T00:23:24.914Z,62.84
2019-04-12T00:26:21.604Z,63.62
2019-04-12T00:29:18.010Z,63.37
2019-04-12T00:32:14.862Z,63.98
2019-04-12T00:35:11.370Z,63.87
2019-04-12T00:38:06.368Z,64.25
2019-04-12T00:41:02.979Z,64.97
2019-04-12T00:43:58.017Z,64.39
2019-04-12T00:46:54.654Z,64.65
2019-04-12T00:49:51.497Z,65.08
2019-04-12T00:52:48.330Z,65.94
2019-04-12T00:55:44.086Z,65.89
2019-04-12T00:58:40.706Z,65.18
2019-04-12T01:01:51.884Z,65.06
2019-04-12T01:04:55.236Z,65.65
2019-04-12T01:07:51.614Z,65.79
2019-04-12T01:10:51.018Z,65.44
2019-04-12T01:13:45.498Z,65.91
2019-04-12T01:16:41.214Z,66.56
2019-04-12T01:19:37.684Z,66.75
2019-04-12T01:22:36.165Z,66.35
2019-04-12T01:25:31.253Z,67.11
2019-04-12T01:28:27.828Z,67.57
2019-04-12T01:31:27.393Z,67.93
2019-04-12T01:34:30.522Z,68.53
2019-04-12T01:37:26.172Z,66.80
2019-04-12T01:40:22.645Z,67.51
2019-04-12T01:43:17.961Z,67.61
2019-04-12T01:46:14.868Z,68.59
2019-04-12T01:49:10.867Z,68.13
2019-04-12T01:52:06.940Z,67.02
2019-04-12T01:55:08.857Z,68.09
2019-04-12T01:57:59.417Z,67.56
2019-04-12T02:00:57.140Z,67.67
2019-04-12T02:03:54.098Z,67.68
2019-04-12T02:06:57.147Z,67.56
2019-04-12T02:09:54.112Z,68.06
2019-04-12T02:12:49.785Z,67.94
2019-04-12T02:15:46.420Z,68.48
2019-04-12T02:18:42.382Z,68.72
2019-04-12T02:21:39.089Z,67.85
2019-04-12T02:24:35.831Z,67.96
2019-04-12T02:27:32.381Z,68.87
2019-04-12T02:30:29.862Z,68.94
2019-04-12T02:33:26.404Z,68.82
2019-04-12T02:36:22.905Z,68.43
2019-04-12T02:39:18.146Z,68.53
2019-04-12T02:42:15.863Z,69.05
2019-04-12T02:45:11.690Z,69.28
2019-04-12T02:48:08.246Z,69.57
2019-04-12T02:51:16.904Z,69.92
2019-04-12T02:54:25.363Z,69.75
2019-04-12T02:57:42.211Z,69.42
2019-04-12T03:00:54.421Z,69.04
2019-04-12T03:03:51.830Z,69.48
2019-04-12T03:06:48.329Z,69.58
2019-04-12T03:09:44.876Z,70.36
2019-04-12T03:12:41.512Z,70.17
2019-04-12T03:15:37.358Z,70.30
2019-04-12T03:18:34.101Z,69.59
2019-04-12T03:21:30.494Z,70.43
2019-04-12T03:24:28.123Z,70.59
2019-04-12T03:27:23.699Z,70.60
2019-04-12T03:30:20.396Z,70.66
2019-04-12T03:33:15.807Z,70.68
2019-04-12T03:36:11.693Z,70.91
2019-04-12T03:39:08.449Z,71.11
2019-04-12T03:42:04.337Z,71.21
2019-04-12T03:45:02.131Z,71.05
2019-04-12T03:47:58.214Z,70.83
2019-04-12T03:50:55.275Z,71.48
2019-04-12T03:53:50.789Z,71.44
2019-04-12T03:56:47.347Z,71.65
2019-04-12T03:59:42.053Z,72.08
2019-04-12T04:02:39.792Z,72.44
2019-04-12T04:05:36.733Z,72.88
2019-04-12T04:08:34.369Z,72.10
2019-04-12T04:11:33.710Z,72.40
2019-04-12T04:14:30.443Z,72.69
2019-04-12T04:17:44.447Z,72.81
2019-04-12T04:20:54.146Z,73.14
2019-04-12T04:24:12.588Z,73.34
2019-04-12T04:27:22.107Z,73.43
2019-04-12T04:30:30.161Z,73.64
2019-04-12T04:33:27.760Z,74.12
2019-04-12T04:36:23.416Z,73.50
2019-04-12T04:39:19.978Z,74.16
2019-04-12T04:42:15.311Z,73.56
2019-04-12T04:45:13.379Z,74.36
2019-04-12T04:48:22.610Z,74.05
2019-04-12T04:51:22.673Z,73.97
2019-04-12T04:54:23.606Z,74.59
2019-04-12T04:57:20.610Z,74.16
2019-04-12T05:00:16.334Z,73.90
2019-04-12T05:03:12.758Z,74.24
2019-04-12T05:06:09.415Z,74.39
2019-04-12T05:09:06.286Z,74.47
2019-04-12T05:12:02.697Z,74.41
2019-04-12T05:14:59.400Z,74.56
2019-04-12T05:17:55.062Z,75.13
2019-04-12T05:20:51.985Z,74.75
2019-04-12T05:23:49.710Z,74.21
2019-04-12T05:26:46.003Z,74.21
2019-04-12T05:29:40.975Z,73.96
2019-04-12T05:32:37.684Z,74.22
2019-04-12T05:35:33.382Z,74.30
2019-04-12T05:38:29.813Z,73.56
2019-04-12T05:41:27.268Z,73.50
2019-04-12T05:44:22.746Z,73.23
2019-04-12T05:47:30.842Z,73.41
2019-04-12T05:50:37.646Z,73.45
2019-04-12T05:53:34.468Z,73.33
2019-04-12T05:56:31.420Z,73.96
2019-04-12T05:59:40.645Z,72.83
2019-04-12T06:02:58.433Z,72.64
2019-04-12T06:05:50.781Z,73.01
2019-04-12T06:08:46.833Z,71.97
2019-04-12T06:11:43.968Z,71.43
2019-04-12T06:14:40.869Z,71.15
2019-04-12T06:17:38.317Z,70.58
2019-04-12T06:20:42.882Z,70.36
2019-04-12T06:23:40.566Z,69.88
2019-04-12T06:26:51.672Z,69.18
2019-04-12T06:29:48.398Z,69.28
2019-04-12T06:32:47.133Z,68.42
2019-04-12T06:35:42.976Z,68.89
2019-04-12T06:38:39.654Z,68.19
2019-04-12T06:41:35.269Z,66.83
2019-04-12T06:44:32.994Z,66.24
2019-04-12T06:47:28.950Z,65.39
2019-04-12T06:50:44.662Z,65.31
2019-04-12T06:53:41.330Z,63.99
2019-04-12T06:56:46.321Z,62.65
2019-04-12T06:59:42.676Z,63.98
2019-04-12T07:02:38.320Z,63.01
2019-04-12T07:05:36.040Z,62.17
2019-04-12T07:08:31.782Z,62.16
2019-04-12T07:11:28.502Z,62.27
2019-04-12T07:14:26.264Z,61.94
2019-04-12T07:17:21.912Z,61.39
2019-04-12T07:20:18.253Z,61.49
2019-04-12T07:23:14.270Z,62.22
2019-04-12T07:26:12.156Z,60.77
2019-04-12T07:29:07.985Z,60.76
2019-04-12T07:32:04.502Z,61.12
2019-04-12T07:35:01.166Z,61.07
2019-04-12T07:37:57.823Z,60.95
2019-04-12T07:40:54.170Z,59.80
2019-04-12T07:43:49.070Z,58.39
2019-04-12T07:46:46.893Z,58.75
2019-04-12T07:49:42.770Z,59.15
2019-04-12T07:52:39.192Z,57.53
2019-04-12T07:55:45.571Z,57.55
2019-04-12T07:58:55.587Z,58.00
2019-04-12T08:02:14.277Z,56.97
2019-04-12T08:05:28.090Z,57.33
2019-04-12T08:08:27.254Z,57.03
2019-04-12T08:11:21.928Z,56.93
2019-04-12T08:14:19.546Z,56.02
2019-04-12T08:17:14.765Z,56.71
2019-04-12T08:20:10.371Z,56.27
2019-04-12T08:23:08.002Z,56.53
2019-04-12T08:26:04.688Z,55.23
2019-04-12T08:29:01.638Z,55.38
2019-04-12T08:31:57.332Z,55.65
2019-04-12T08:34:54.231Z,55.62
2019-04-12T08:37:50.070Z,55.62
2019-04-12T08:40:50.648Z,53.36
2019-04-12T08:43:55.966Z,53.78
2019-04-12T08:46:52.140Z,53.78
2019-04-12T08:49:54.168Z,52.60
2019-04-12T08:52:50.411Z,53.19
2019-04-12T08:55:47.123Z,52.78
2019-04-12T08:58:44.333Z,53.77
2019-04-12T09:01:42.817Z,53.44
2019-04-12T09:04:40.743Z,53.14
2019-04-12T09:07:37.398Z,53.76
2019-04-12T09:10:35.815Z,51.86
2019-04-12T09:13:30.740Z,51.49
2019-04-12T09:16:28.253Z,52.06
2019-04-12T09:19:44.620Z,52.53
2019-04-12T09:22:59.277Z,53.27
2019-04-12T09:25:57.681Z,51.19
2019-04-12T09:28:54.088Z,51.93
2019-04-12T09:31:49.595Z,51.45
2019-04-12T09:34:46.383Z,51.93
2019-04-12T09:37:44.103Z,51.33
2019-04-12T09:40:39.939Z,52.74
2019-04-12T09:43:36.782Z,51.15
2019-04-12T09:46:37.575Z,51.42
2019-04-12T09:49:45.558Z,52.41
2019-04-12T09:52:45.572Z,50.97
2019-04-12T09:55:51.773Z,50.84
2019-04-12T09:58:47.270Z,49.58
2019-04-12T10:01:44.049Z,51.98
2019-04-12T10:04:40.945Z,51.74
2019-04-12T10:07:36.817Z,50.73
2019-04-12T10:10:34.001Z,48.42
2019-04-12T10:13:29.409Z,51.04
2019-04-12T10:16:26.390Z,51.38
2019-04-12T10:19:24.260Z,50.78
2019-04-12T10:22:21.853Z,51.18
2019-04-12T10:25:17.650Z,50.19
2019-04-12T10:28:15.405Z,50.17
2019-04-12T10:31:11.325Z,48.09
2019-04-12T10:34:07.793Z,48.14
2019-04-12T10:37:04.551Z,49.53
2019-04-12T10:40:01.148Z,49.94
2019-04-12T10:42:57.494Z,48.90
2019-04-12T10:46:05.005Z,46.57
2019-04-12T10:49:20.999Z,47.09
2019-04-12T10:52:21.003Z,49.38
2019-04-12T10:55:31.387Z,50.29
2019-04-12T10:58:27.715Z,46.97
2019-04-12T11:01:47.825Z,50.80
2019-04-12T11:04:45.012Z,50.91
2019-04-12T11:07:40.762Z,48.71
2019-04-12T11:10:48.568Z,46.80
2019-04-12T11:13:44.417Z,48.92
2019-04-12T11:16:41.213Z,46.09
2019-04-12T11:19:38.153Z,46.76
2019-04-12T11:22:35.738Z,48.08
2019-04-12T11:25:32.489Z,47.73
2019-04-12T11:28:28.431Z,46.86
2019-04-12T11:31:25.054Z,44.59
2019-04-12T11:34:20.768Z,45.73
2019-04-12T11:37:18.584Z,47.24
2019-04-12T11:40:14.479Z,47.57
2019-04-12T11:43:11.310Z,47.41
2019-04-12T11:46:07.008Z,46.96
2019-04-12T11:49:04.827Z,49.27
2019-04-12T11:52:00.379Z,48.07
2019-04-12T11:54:57.133Z,47.04
2019-04-12T11:57:52.824Z,49.94
2019-04-12T12:00:53.796Z,49.31
2019-04-12T12:03:58.280Z,46.99
2019-04-12T12:07:17.955Z,48.55
2019-04-12T12:10:32.968Z,47.70
2019-04-12T12:13:45.377Z,49.37
2019-04-12T12:16:56.010Z,48.92
2019-04-12T12:19:54.999Z,50.23
2019-04-12T12:22:51.149Z,50.52
2019-04-12T12:25:47.770Z,49.42
2019-04-12T12:28:43.343Z,49.42
2019-04-12T12:31:45.127Z,49.39
2019-04-12T12:34:40.751Z,48.39
2019-04-12T12:37:37.669Z,49.01
2019-04-12T12:40:34.643Z,48.90
2019-04-12T12:43:31.154Z,47.97
2019-04-12T12:46:27.860Z,49.26
2019-04-12T12:49:24.541Z,47.30
2019-04-12T12:52:25.725Z,49.22
2019-04-12T12:55:21.411Z,48.02
2019-04-12T12:58:18.186Z,47.74
2019-04-12T13:01:14.903Z,47.47
2019-04-12T13:04:10.435Z,46.31
2019-04-12T13:07:10.228Z,47.11
2019-04-12T13:10:13.027Z,47.08
2019-04-12T13:13:09.451Z,47.62
2019-04-12T13:16:08.392Z,46.84
2019-04-12T13:19:03.203Z,48.05
2019-04-12T13:21:59.860Z,45.33
2019-04-12T13:24:55.760Z,46.28
2019-04-12T13:27:52.758Z,47.86
2019-04-12T13:31:00.878Z,47.26
2019-04-12T13:34:12.464Z,47.60
2019-04-12T13:37:26.643Z,47.49
2019-04-12T13:40:37.124Z,47.42
2019-04-12T13:43:33.933Z,47.29
2019-04-12T13:46:29.740Z,45.79
2019-04-12T13:49:26.723Z,47.42
2019-04-12T13:52:23.561Z,47.55
2019-04-12T13:55:23.479Z,45.11
2019-04-12T13:58:20.145Z,46.35
2019-04-12T14:01:23.080Z,48.39
2019-04-12T14:04:20.681Z,47.67
2019-04-12T14:07:19.605Z,46.57
2019-04-12T14:10:17.353Z,46.82
2019-04-12T14:13:14.443Z,45.41
2019-04-12T14:16:10.317Z,47.54
2019-04-12T14:19:12.459Z,46.84
2019-04-12T14:22:08.027Z,45.92
2019-04-12T14:25:04.960Z,46.80
2019-04-12T14:28:03.107Z,45.89
2019-04-12T14:31:01.098Z,45.73
2019-04-12T14:34:08.055Z,46.04
2019-04-12T14:37:13.408Z,46.01
2019-04-12T14:40:09.164Z,46.64
2019-04-12T14:43:08.443Z,43.67
2019-04-12T14:46:18.143Z,46.20
2019-04-12T14:49:13.788Z,44.87
2019-04-12T14:52:11.476Z,43.23
2019-04-12T14:55:08.245Z,45.04
2019-04-12T14:58:03.240Z,45.72
2019-04-12T15:01:10.130Z,46.12
2019-04-12T15:03:59.763Z,46.82
2019-04-12T15:06:57.565Z,43.95
2019-04-12T15:09:53.376Z,46.10
2019-04-12T15:12:50.046Z,44.31
2019-04-12T15:15:45.605Z,45.80
2019-04-12T15:18:42.474Z,45.08
2019-04-12T15:21:44.961Z,45.56
2019-04-12T15:24:44.379Z,44.20
2019-04-12T15:27:41.651Z,46.72
2019-04-12T15:30:37.141Z,42.62
2019-04-12T15:33:34.248Z,45.78
2019-04-12T15:36:30.044Z,42.21
2019-04-12T15:39:27.072Z,43.24
2019-04-12T15:42:24.724Z,43.86
2019-04-12T15:45:20.233Z,43.38
2019-04-12T15:48:16.237Z,45.84
2019-04-12T15:51:11.183Z,44.73
2019-04-12T15:54:07.824Z,45.28
2019-04-12T15:57:04.500Z,44.25
2019-04-12T16:00:01.365Z,43.25
2019-04-12T16:02:57.908Z,41.58
2019-04-12T16:05:54.822Z,43.37
2019-04-12T16:08:56.041Z,43.71
2019-04-12T16:12:08.625Z,43.77
2019-04-12T16:15:36.635Z,44.05
2019-04-12T16:18:32.341Z,44.09
2019-04-12T16:21:29.054Z,44.42
2019-04-12T16:24:26.189Z,43.65
2019-04-12T16:27:22.975Z,43.76
2019-04-12T16:30:37.078Z,45.26
2019-04-12T16:33:43.158Z,45.97
2019-04-12T16:36:50.597Z,45.09
2019-04-12T16:39:47.714Z,45.14
2019-04-12T16:42:43.698Z,46.44
2019-04-12T16:45:40.540Z,45.13
2019-04-12T16:48:37.326Z,45.33
2019-04-12T16:51:34.232Z,45.00
2019-04-12T16:54:29.793Z,44.93
2019-04-12T16:57:26.747Z,45.83
2019-04-12T17:00:23.695Z,47.23
2019-04-12T17:03:20.365Z,47.03
2019-04-12T17:06:17.943Z,47.59
2019-04-12T17:09:12.891Z,48.45
2019-04-12T17:12:10.705Z,49.03
2019-04-12T17:15:06.410Z,48.89
2019-04-12T17:18:03.460Z,49.40
2019-04-12T17:21:00.304Z,49.71
2019-04-12T17:23:57.353Z,49.90
2019-04-12T17:26:54.323Z,46.63
2019-04-12T17:29:51.124Z,47.32
2019-04-12T17:32:48.187Z,49.27
2019-04-12T17:35:44.112Z,49.94
2019-04-12T17:38:45.745Z,48.78
2019-04-12T17:41:43.829Z,48.93
2019-04-12T17:44:41.600Z,48.98
2019-04-12T17:47:38.311Z,49.20
2019-04-12T17:50:44.871Z,49.14
2019-04-12T17:54:03.683Z,49.82
2019-04-12T17:56:59.426Z,50.80
2019-04-12T17:59:56.260Z,50.42
2019-04-12T18:02:59.159Z,50.06
2019-04-12T18:06:06.791Z,50.79
2019-04-12T18:09:15.196Z,50.63
2019-04-12T18:12:17.707Z,50.87
2019-04-12T18:15:15.305Z,51.25
2019-04-12T18:18:13.063Z,51.25
2019-04-12T18:21:09.017Z,51.94
2019-04-12T18:24:06.827Z,51.89
2019-04-12T18:27:03.371Z,52.08
2019-04-12T18:30:00.570Z,52.77
2019-04-12T18:32:58.497Z,51.89
2019-04-12T18:35:55.370Z,52.27
2019-04-12T18:38:50.823Z,52.15
2019-04-12T18:41:48.543Z,51.75
2019-04-12T18:44:45.844Z,52.07
2019-04-12T18:47:40.837Z,51.59
2019-04-12T18:50:37.868Z,51.47
2019-04-12T18:53:33.575Z,52.19
2019-04-12T18:56:30.538Z,52.00
2019-04-12T18:59:26.138Z,52.76
2019-04-12T19:02:27.374Z,52.89
2019-04-12T19:05:31.477Z,53.49
2019-04-12T19:08:28.213Z,54.02
2019-04-12T19:11:24.934Z,53.70
2019-04-12T19:14:22.842Z,53.96
2019-04-12T19:17:19.276Z,53.67
2019-04-12T19:20:14.758Z,53.80
2019-04-12T19:23:16.095Z,53.73
2019-04-12T19:26:18.750Z,54.28
2019-04-12T19:29:10.047Z,54.40
2019-04-12T19:32:24.355Z,53.73
2019-04-12T19:35:42.149Z,54.19
2019-04-12T19:38:58.439Z,54.82
2019-04-12T19:41:55.457Z,54.51
2019-04-12T19:44:53.623Z,54.15
2019-04-12T19:47:58.543Z,54.72
2019-04-12T19:50:55.538Z,55.29
2019-04-12T19:53:52.587Z,55.10
2019-04-12T19:56:47.917Z,55.03
2019-04-12T19:59:44.555Z,55.72
2019-04-12T20:02:51.076Z,55.76
2019-04-12T20:05:37.496Z,55.15
2019-04-12T20:08:35.535Z,55.57
2019-04-12T20:11:31.564Z,55.69
2019-04-12T20:14:28.370Z,56.38
2019-04-12T20:17:24.349Z,56.03
2019-04-12T20:20:20.427Z,56.08
2019-04-12T20:23:16.004Z,56.32
2019-04-12T20:26:13.969Z,56.42
2019-04-12T20:29:10.751Z,56.83
2019-04-12T20:32:06.599Z,56.95
2019-04-12T20:35:03.409Z,56.70
2019-04-12T20:37:58.688Z,57.19
2019-04-12T20:40:55.568Z,57.59
2019-04-12T20:43:52.022Z,57.59
2019-04-12T20:46:50.718Z,57.78
2019-04-12T20:49:47.478Z,57.36
2019-04-12T20:52:43.563Z,58.06
2019-04-12T20:55:41.326Z,58.42
2019-04-12T20:58:37.963Z,57.93
2019-04-12T21:01:34.993Z,58.18
2019-04-12T21:04:30.299Z,58.23
2019-04-12T21:07:27.054Z,57.95
2019-04-12T21:10:23.233Z,58.43
2019-04-12T21:13:19.176Z,58.80
2019-04-12T21:16:14.405Z,58.68
2019-04-12T21:19:11.149Z,58.88
2019-04-12T21:22:07.878Z,59.07
2019-04-12T21:25:04.748Z,58.78
2019-04-12T21:28:01.418Z,58.27
2019-04-12T21:30:57.026Z,58.49
2019-04-12T21:33:53.815Z,58.96
2019-04-12T21:36:50.380Z,59.04
2019-04-12T21:39:48.307Z,58.97
2019-04-12T21:42:45.930Z,58.84
2019-04-12T21:45:41.504Z,59.61
2019-04-12T21:48:41.559Z,59.61
2019-04-12T21:51:38.717Z,59.68
2019-04-12T21:54:35.364Z,59.27
2019-04-12T21:57:32.303Z,59.26
2019-04-12T22:00:31.617Z,59.80
2019-04-12T22:03:40.052Z,59.26
2019-04-12T22:06:28.606Z,59.42
2019-04-12T22:09:27.362Z,60.15
2019-04-12T22:12:23.063Z,59.75
2019-04-12T22:15:19.899Z,59.61
2019-04-12T22:18:23.336Z,60.57
2019-04-12T22:21:23.364Z,60.40
2019-04-12T22:24:29.958Z,60.03
2019-04-12T22:27:27.827Z,60.44
2019-04-12T22:30:24.326Z,60.77
2019-04-12T22:33:19.555Z,60.09
2019-04-12T22:36:16.117Z,60.80
2019-04-12T22:39:12.880Z,60.86
2019-04-12T22:42:10.805Z,60.94
2019-04-12T22:45:06.436Z,61.50
2019-04-12T22:48:04.157Z,61.43
2019-04-12T22:51:00.803Z,61.11
2019-04-12T22:53:56.422Z,61.43
2019-04-12T22:56:52.898Z,61.26
2019-04-12T22:59:47.990Z,61.66
2019-04-12T23:02:45.140Z,61.91
2019-04-12T23:05:40.976Z,62.13
2019-04-12T23:08:37.599Z,62.07
2019-04-12T23:11:34.140Z,62.43
2019-04-12T23:14:30.787Z,62.08
2019-04-12T23:17:26.922Z,62.00
2019-04-12T23:20:21.804Z,62.38
2019-04-12T23:23:18.446Z,61.73
2019-04-12T23:26:14.070Z,62.60
2019-04-12T23:29:11.532Z,62.62
2019-04-12T23:32:08.159Z,62.55
2019-04-12T23:35:15.903Z,62.54
2019-04-12T23:38:13.816Z,62.64
2019-04-12T23:41:10.483Z,62.85
2019-04-12T23:44:08.283Z,63.62
2019-04-12T23:47:04.894Z,62.96
2019-04-12T23:50:01.840Z,63.37
2019-04-12T23:52:58.489Z,63.06
2019-04-12T23:55:53.234Z,63.07
2019-04-12T23:58:52.191Z,63.51
